createdAt,value
2023-03-31T00:00:52.617Z,0.00
2023-03-31T00:01:52.749Z,0.00
2023-03-31T00:02:52.521Z,0.00
2023-03-31T00:03:52.567Z,0.00
2023-03-31T00:04:52.638Z,0.00
2023-03-31T00:08:10.717Z,0.00
2023-03-31T00:09:11.903Z,0.00
2023-03-31T00:11:11.530Z,0.00
2023-03-31T00:12:11.448Z,0.00
2023-03-31T00:13:11.427Z,0.00
2023-03-31T00:14:11.317Z,0.00
2023-03-31T00:15:11.285Z,0.00
2023-03-31T00:16:11.317Z,0.00
2023-03-31T00:17:11.128Z,0.00
2023-03-31T00:18:11.092Z,0.00
2023-03-31T00:19:11.112Z,0.00
2023-03-31T00:20:10.965Z,0.00
2023-03-31T00:21:10.906Z,0.00
2023-03-31T00:22:10.876Z,0.00
2023-03-31T00:23:11.292Z,0.00
2023-03-31T00:24:10.716Z,0.00
2023-03-31T00:27:29.146Z,0.00
2023-03-31T00:28:30.040Z,0.00
2023-03-31T00:29:29.963Z,0.00
2023-03-31T00:30:29.907Z,0.00
2023-03-31T00:31:29.925Z,0.00
2023-03-31T00:32:30.109Z,0.00
2023-03-31T00:33:29.736Z,0.00
2023-03-31T00:34:29.668Z,0.00
2023-03-31T00:35:29.625Z,0.00
2023-03-31T00:36:29.529Z,0.00
2023-03-31T00:37:29.537Z,0.00
2023-03-31T00:38:29.488Z,0.00
2023-03-31T00:39:29.336Z,0.00
2023-03-31T00:40:29.281Z,0.00
2023-03-31T00:41:29.252Z,0.00
2023-03-31T00:42:29.177Z,0.00
2023-03-31T00:43:29.125Z,0.00
2023-03-31T00:44:30.254Z,0.00
2023-03-31T00:45:29.029Z,0.00
2023-03-31T00:46:28.978Z,0.00
2023-03-31T00:47:28.937Z,0.00
2023-03-31T00:48:28.826Z,0.00
2023-03-31T00:49:28.737Z,0.00
2023-03-31T00:50:28.785Z,0.00
2023-03-31T00:51:28.612Z,0.00
2023-03-31T00:52:28.529Z,0.00
2023-03-31T00:53:28.482Z,0.00
2023-03-31T00:54:28.440Z,0.00
2023-03-31T00:55:28.408Z,0.00
2023-03-31T00:56:28.295Z,0.00
2023-03-31T00:57:28.360Z,0.00
2023-03-31T00:58:28.151Z,0.00
2023-03-31T00:59:28.140Z,0.00
2023-03-31T01:00:28.053Z,0.00
2023-03-31T01:01:28.053Z,0.00
2023-03-31T01:02:27.961Z,0.00
2023-03-31T01:03:27.885Z,0.00
2023-03-31T01:04:27.777Z,0.00
2023-03-31T01:05:27.716Z,0.00
2023-03-31T01:06:27.685Z,0.00
2023-03-31T01:07:27.641Z,0.00
2023-03-31T01:08:27.618Z,0.00
2023-03-31T01:09:27.487Z,0.00
2023-03-31T01:10:27.426Z,0.00
2023-03-31T01:11:27.370Z,0.00
2023-03-31T01:12:27.337Z,0.00
2023-03-31T01:13:27.264Z,0.00
2023-03-31T01:14:27.161Z,0.00
2023-03-31T01:15:27.113Z,0.00
2023-03-31T01:16:27.064Z,0.00
2023-03-31T01:17:27.081Z,0.00
2023-03-31T01:18:26.985Z,0.00
2023-03-31T01:19:26.844Z,0.00
2023-03-31T01:20:26.831Z,0.00
2023-03-31T01:21:26.743Z,0.00
2023-03-31T01:22:26.707Z,0.00
2023-03-31T01:23:26.610Z,0.00
2023-03-31T01:24:26.540Z,0.00
2023-03-31T01:25:26.463Z,0.00
2023-03-31T01:26:26.465Z,0.00
2023-03-31T01:27:26.387Z,0.00
2023-03-31T01:28:26.379Z,0.00
2023-03-31T01:29:26.300Z,0.00
2023-03-31T01:30:26.226Z,0.00
2023-03-31T01:31:26.138Z,0.00
2023-03-31T01:32:26.170Z,0.00
2023-03-31T01:33:25.965Z,0.00
2023-03-31T01:34:25.957Z,0.00
2023-03-31T01:35:25.924Z,0.00
2023-03-31T01:36:25.833Z,0.00
2023-03-31T01:37:25.767Z,0.00
2023-03-31T01:38:25.769Z,0.00
2023-03-31T01:39:25.639Z,0.00
2023-03-31T01:40:25.526Z,0.00
2023-03-31T01:41:25.495Z,0.00
2023-03-31T01:42:25.454Z,0.00
2023-03-31T01:43:25.390Z,0.00
2023-03-31T01:44:25.324Z,0.00
2023-03-31T01:45:25.267Z,0.00
2023-03-31T01:46:25.203Z,0.00
2023-03-31T01:47:25.174Z,0.00
2023-03-31T01:48:25.060Z,0.00
2023-03-31T01:49:24.971Z,0.00
2023-03-31T01:50:24.940Z,0.00
2023-03-31T01:51:24.859Z,0.00
2023-03-31T01:52:24.860Z,0.00
2023-03-31T01:53:24.800Z,0.00
2023-03-31T01:54:24.650Z,0.00
2023-03-31T01:55:24.624Z,0.00
2023-03-31T01:56:24.552Z,0.00
2023-03-31T01:57:24.614Z,0.00
2023-03-31T01:58:24.424Z,0.00
2023-03-31T01:59:24.396Z,0.00
2023-03-31T02:00:24.309Z,0.00
2023-03-31T02:01:24.338Z,0.00
2023-03-31T02:02:24.295Z,0.00
2023-03-31T02:03:24.350Z,0.00
2023-03-31T02:04:24.081Z,0.00
2023-03-31T02:05:23.999Z,0.00
2023-03-31T02:06:24.943Z,0.00
2023-03-31T02:07:23.870Z,0.00
2023-03-31T02:08:23.858Z,0.00
2023-03-31T02:09:23.768Z,0.00
2023-03-31T02:10:23.696Z,0.00
2023-03-31T02:11:23.625Z,0.00
2023-03-31T02:12:23.552Z,0.00
2023-03-31T02:13:23.525Z,0.00
2023-03-31T02:14:24.646Z,0.00
2023-03-31T02:15:23.378Z,0.00
2023-03-31T02:16:23.414Z,0.00
2023-03-31T02:17:23.316Z,0.00
2023-03-31T02:18:23.203Z,0.00
2023-03-31T02:19:23.117Z,0.00
2023-03-31T02:20:23.068Z,0.00
2023-03-31T02:21:23.017Z,0.00
2023-03-31T02:22:22.905Z,0.00
2023-03-31T02:23:22.868Z,0.00
2023-03-31T02:24:22.798Z,0.00
2023-03-31T02:25:22.745Z,0.00
2023-03-31T02:26:22.734Z,0.00
2023-03-31T02:27:22.694Z,0.00
2023-03-31T02:28:22.558Z,0.00
2023-03-31T02:29:22.481Z,0.00
2023-03-31T02:30:22.485Z,0.00
2023-03-31T02:31:22.433Z,0.00
2023-03-31T02:32:22.370Z,0.00
2023-03-31T02:33:22.284Z,0.00
2023-03-31T02:34:22.173Z,0.00
2023-03-31T02:35:22.104Z,0.00
2023-03-31T02:36:22.089Z,0.00
2023-03-31T02:37:21.964Z,0.00
2023-03-31T02:38:21.933Z,0.00
2023-03-31T02:39:21.844Z,0.00
2023-03-31T02:40:21.815Z,0.00
2023-03-31T02:41:21.740Z,0.00
2023-03-31T02:42:21.649Z,0.00
2023-03-31T02:43:21.713Z,0.00
2023-03-31T02:44:21.636Z,0.00
2023-03-31T02:45:21.516Z,0.00
2023-03-31T02:46:21.531Z,0.00
2023-03-31T02:47:21.465Z,0.00
2023-03-31T02:48:21.316Z,0.00
2023-03-31T02:49:21.271Z,0.00
2023-03-31T02:50:21.165Z,0.00
2023-03-31T02:51:21.122Z,0.00
2023-03-31T02:52:21.038Z,0.00
2023-03-31T02:53:21.042Z,0.00
2023-03-31T02:54:20.961Z,0.00
2023-03-31T02:55:20.894Z,0.00
2023-03-31T02:56:20.836Z,0.00
2023-03-31T02:57:20.904Z,0.00
2023-03-31T02:58:20.682Z,0.00
2023-03-31T02:59:20.645Z,0.00
2023-03-31T03:00:20.562Z,0.00
2023-03-31T03:01:20.561Z,0.00
2023-03-31T03:02:20.502Z,0.00
2023-03-31T03:03:20.421Z,0.00
2023-03-31T03:04:20.312Z,0.00
2023-03-31T03:05:20.361Z,0.00
2023-03-31T03:06:20.153Z,0.00
2023-03-31T03:07:20.118Z,0.00
2023-03-31T03:08:20.086Z,0.00
2023-03-31T03:09:19.981Z,0.00
2023-03-31T03:10:19.953Z,0.00
2023-03-31T03:11:19.856Z,0.00
2023-03-31T03:12:19.833Z,0.00
2023-03-31T03:13:19.766Z,0.00
2023-03-31T03:14:19.704Z,0.00
2023-03-31T03:15:19.622Z,0.00
2023-03-31T03:16:19.602Z,0.00
2023-03-31T03:17:19.505Z,0.00
2023-03-31T03:18:19.431Z,0.00
2023-03-31T03:19:19.371Z,0.00
2023-03-31T03:20:19.303Z,0.00
2023-03-31T03:21:19.244Z,0.00
2023-03-31T03:22:19.169Z,0.00
2023-03-31T03:23:19.124Z,0.00
2023-03-31T03:24:19.108Z,0.00
2023-03-31T03:25:19.016Z,0.00
2023-03-31T03:26:18.909Z,0.00
2023-03-31T03:27:18.895Z,0.00
2023-03-31T03:28:18.834Z,0.00
2023-03-31T03:29:18.764Z,0.00
2023-03-31T03:30:18.687Z,0.00
2023-03-31T03:31:18.720Z,0.00
2023-03-31T03:32:18.549Z,0.00
2023-03-31T03:33:18.554Z,0.00
2023-03-31T03:34:18.425Z,0.00
2023-03-31T03:35:18.399Z,0.00
2023-03-31T03:36:18.290Z,0.00
2023-03-31T03:37:18.271Z,0.00
2023-03-31T03:38:18.191Z,0.00
2023-03-31T03:39:18.120Z,0.00
2023-03-31T03:40:18.056Z,0.00
2023-03-31T03:41:18.058Z,0.00
2023-03-31T03:42:17.911Z,0.00
2023-03-31T03:43:17.869Z,0.00
2023-03-31T03:44:17.831Z,0.00
2023-03-31T03:45:17.758Z,0.00
2023-03-31T03:46:17.728Z,0.00
2023-03-31T03:47:17.644Z,0.00
2023-03-31T03:48:17.530Z,0.00
2023-03-31T03:49:17.550Z,0.00
2023-03-31T03:50:17.742Z,0.00
2023-03-31T03:51:17.369Z,0.00
2023-03-31T03:52:17.313Z,0.00
2023-03-31T03:53:17.278Z,0.00
2023-03-31T03:54:17.184Z,0.00
2023-03-31T03:55:17.156Z,0.00
2023-03-31T03:56:17.106Z,0.00
2023-03-31T03:57:17.053Z,0.00
2023-03-31T03:58:16.959Z,0.00
2023-03-31T03:59:16.833Z,0.00
2023-03-31T04:00:16.794Z,0.00
2023-03-31T04:01:16.729Z,0.00
2023-03-31T04:02:16.800Z,0.00
2023-03-31T04:03:16.739Z,0.00
2023-03-31T04:04:16.625Z,0.00
2023-03-31T04:05:16.539Z,0.00
2023-03-31T04:06:16.442Z,0.00
2023-03-31T04:07:16.386Z,0.00
2023-03-31T04:08:16.308Z,0.00
2023-03-31T04:09:16.308Z,0.00
2023-03-31T04:10:16.185Z,0.00
2023-03-31T04:11:18.507Z,0.00
2023-03-31T04:12:16.112Z,0.00
2023-03-31T04:13:15.984Z,0.00
2023-03-31T04:14:15.960Z,0.00
2023-03-31T04:15:15.889Z,0.00
2023-03-31T04:16:15.866Z,0.00
2023-03-31T04:17:15.801Z,0.00
2023-03-31T04:18:15.742Z,0.00
2023-03-31T04:19:15.942Z,0.00
2023-03-31T04:20:15.564Z,0.00
2023-03-31T04:21:15.472Z,0.00
2023-03-31T04:22:15.462Z,0.00
2023-03-31T04:23:15.389Z,0.00
2023-03-31T04:24:15.337Z,0.00
2023-03-31T04:25:15.231Z,0.00
2023-03-31T04:26:15.193Z,0.00
2023-03-31T04:27:15.114Z,0.00
2023-03-31T04:28:15.072Z,0.00
2023-03-31T04:29:15.003Z,0.00
2023-03-31T04:30:14.975Z,0.00
2023-03-31T04:31:14.940Z,0.00
2023-03-31T04:32:14.905Z,0.00
2023-03-31T04:33:14.756Z,0.00
2023-03-31T04:34:14.699Z,0.00
2023-03-31T04:35:14.539Z,1.00
2023-03-31T04:36:14.650Z,0.00
2023-03-31T04:37:14.419Z,1.00
2023-03-31T04:38:14.440Z,1.00
2023-03-31T04:39:14.324Z,1.00
2023-03-31T04:40:14.273Z,2.00
2023-03-31T04:41:14.224Z,2.00
2023-03-31T04:42:14.146Z,2.00
2023-03-31T04:43:14.050Z,2.00
2023-03-31T04:44:14.013Z,3.00
2023-03-31T04:45:13.930Z,3.00
2023-03-31T04:46:13.861Z,3.00
2023-03-31T04:47:13.810Z,3.00
2023-03-31T04:48:13.726Z,7.00
2023-03-31T04:49:13.683Z,6.00
2023-03-31T04:50:16.776Z,3.00
2023-03-31T04:51:13.548Z,3.00
2023-03-31T04:52:13.461Z,5.00
2023-03-31T04:53:13.419Z,3.00
2023-03-31T04:54:13.386Z,2.00
2023-03-31T04:55:13.311Z,2.00
2023-03-31T04:58:31.578Z,6.00
2023-03-31T04:59:32.523Z,6.00
2023-03-31T05:00:32.488Z,4.00
2023-03-31T05:01:32.434Z,9.00
2023-03-31T05:02:32.390Z,7.00
2023-03-31T05:03:32.421Z,11.00
2023-03-31T05:04:32.224Z,10.00
2023-03-31T05:05:32.161Z,11.00
2023-03-31T05:06:32.125Z,13.00
2023-03-31T05:07:32.064Z,15.00
2023-03-31T05:08:31.973Z,18.00
2023-03-31T05:09:33.491Z,17.00
2023-03-31T05:10:31.823Z,22.00
2023-03-31T05:11:31.785Z,27.00
2023-03-31T05:12:31.702Z,37.00
2023-03-31T05:13:31.648Z,36.00
2023-03-31T05:14:31.662Z,27.00
2023-03-31T05:15:54.941Z,39.00
2023-03-31T05:16:31.487Z,42.00
2023-03-31T05:17:31.495Z,52.00
2023-03-31T05:18:31.384Z,43.00
2023-03-31T05:19:31.300Z,48.00
2023-03-31T05:20:31.255Z,56.00
2023-03-31T05:21:31.237Z,59.00
2023-03-31T05:22:31.103Z,51.00
2023-03-31T05:23:31.038Z,56.00
2023-03-31T05:24:30.950Z,60.00
2023-03-31T05:25:30.913Z,54.00
2023-03-31T05:26:30.852Z,61.00
2023-03-31T05:27:30.823Z,60.00
2023-03-31T05:28:32.026Z,80.00
2023-03-31T05:29:30.649Z,120.00
2023-03-31T05:30:30.634Z,76.00
2023-03-31T05:31:30.557Z,67.00
2023-03-31T05:32:30.551Z,114.00
2023-03-31T05:33:30.481Z,133.00
2023-03-31T05:34:30.377Z,128.00
2023-03-31T05:35:31.114Z,145.00
2023-03-31T05:36:30.434Z,154.00
2023-03-31T05:37:30.158Z,154.00
2023-03-31T05:38:30.634Z,151.00
2023-03-31T05:39:30.391Z,180.00
2023-03-31T05:40:29.967Z,214.00
2023-03-31T05:41:29.922Z,238.00
2023-03-31T05:42:29.920Z,193.00
2023-03-31T05:43:30.640Z,156.00
2023-03-31T05:44:29.800Z,122.00
2023-03-31T05:45:30.640Z,119.00
2023-03-31T05:46:29.713Z,46.00
2023-03-31T05:47:29.563Z,118.00
2023-03-31T05:48:29.489Z,179.00
2023-03-31T05:49:29.458Z,182.00
2023-03-31T05:50:29.427Z,159.00
2023-03-31T05:51:30.547Z,164.00
2023-03-31T05:52:29.224Z,233.00
2023-03-31T05:53:29.173Z,308.00
2023-03-31T05:54:29.112Z,342.00
2023-03-31T05:55:29.058Z,332.00
2023-03-31T05:56:29.013Z,292.00
2023-03-31T05:57:29.055Z,267.00
2023-03-31T05:58:28.870Z,233.00
2023-03-31T05:59:28.824Z,167.00
2023-03-31T06:00:28.802Z,202.00
2023-03-31T06:01:28.712Z,191.00
2023-03-31T06:02:28.661Z,204.00
2023-03-31T06:03:29.805Z,211.00
2023-03-31T06:04:28.533Z,232.00
2023-03-31T06:05:28.385Z,245.00
2023-03-31T06:06:28.386Z,224.00
2023-03-31T06:07:28.306Z,195.00
2023-03-31T06:08:28.269Z,164.00
2023-03-31T06:11:47.234Z,202.00
2023-03-31T06:12:47.426Z,201.00
2023-03-31T06:13:47.429Z,216.00
2023-03-31T06:14:47.330Z,218.00
2023-03-31T06:15:47.264Z,190.00
2023-03-31T06:16:47.278Z,188.00
2023-03-31T06:17:47.218Z,176.00
2023-03-31T06:18:47.086Z,167.00
2023-03-31T06:19:47.026Z,137.00
2023-03-31T06:20:46.957Z,113.00
2023-03-31T06:21:46.870Z,81.00
2023-03-31T06:22:46.975Z,119.00
2023-03-31T06:23:46.777Z,147.00
2023-03-31T06:24:46.709Z,136.00
2023-03-31T06:25:51.353Z,159.00
2023-03-31T06:26:46.555Z,191.00
2023-03-31T06:27:46.568Z,176.00
2023-03-31T06:31:05.130Z,236.00
2023-03-31T06:32:05.855Z,230.00
2023-03-31T06:33:05.676Z,213.00
2023-03-31T06:34:05.625Z,290.00
2023-03-31T06:35:05.519Z,223.00
2023-03-31T06:36:05.881Z,166.00
2023-03-31T06:37:05.505Z,222.00
2023-03-31T06:38:05.390Z,273.00
2023-03-31T06:39:05.328Z,225.00
2023-03-31T06:40:05.245Z,296.00
2023-03-31T06:41:05.438Z,325.00
2023-03-31T06:44:23.554Z,623.00
2023-03-31T06:45:25.008Z,607.00
2023-03-31T06:46:24.493Z,567.00
2023-03-31T06:47:24.332Z,766.00
2023-03-31T06:48:24.239Z,735.00
2023-03-31T06:49:24.205Z,623.00
2023-03-31T06:50:24.165Z,514.00
2023-03-31T06:51:24.041Z,397.00
2023-03-31T06:52:23.981Z,366.00
2023-03-31T06:53:23.967Z,379.00
2023-03-31T06:54:24.510Z,382.00
2023-03-31T06:55:23.842Z,513.00
2023-03-31T06:56:23.743Z,449.00
2023-03-31T06:57:23.780Z,288.00
2023-03-31T06:58:24.547Z,515.00
2023-03-31T06:59:23.530Z,437.00
2023-03-31T07:00:24.295Z,361.00
2023-03-31T07:01:23.512Z,236.00
2023-03-31T07:02:23.439Z,254.00
2023-03-31T07:03:24.700Z,195.00
2023-03-31T07:04:23.263Z,234.00
2023-03-31T07:05:23.206Z,162.00
2023-03-31T07:06:23.085Z,284.00
2023-03-31T07:09:41.399Z,269.00
2023-03-31T07:10:42.356Z,269.00
2023-03-31T07:11:43.174Z,272.00
2023-03-31T07:12:46.785Z,276.00
2023-03-31T07:13:44.293Z,265.00
2023-03-31T07:14:46.012Z,257.00
2023-03-31T07:15:43.050Z,253.00
2023-03-31T07:16:42.001Z,271.00
2023-03-31T07:17:42.105Z,280.00
2023-03-31T07:18:41.894Z,286.00
2023-03-31T07:19:41.771Z,309.00
2023-03-31T07:20:41.711Z,290.00
2023-03-31T07:21:41.627Z,306.00
2023-03-31T07:22:41.581Z,299.00
2023-03-31T07:23:41.544Z,313.00
2023-03-31T07:24:41.578Z,287.00
2023-03-31T07:25:41.396Z,313.00
2023-03-31T07:28:59.671Z,371.00
2023-03-31T07:30:00.632Z,358.00
2023-03-31T07:31:00.563Z,369.00
2023-03-31T07:32:00.464Z,374.00
2023-03-31T07:33:00.560Z,381.00
2023-03-31T07:34:00.422Z,381.00
2023-03-31T07:35:00.327Z,390.00
2023-03-31T07:36:10.186Z,397.00
2023-03-31T07:37:00.177Z,419.00
2023-03-31T07:38:00.100Z,424.00
2023-03-31T07:39:00.042Z,420.00
2023-03-31T07:40:00.040Z,411.00
2023-03-31T07:41:08.576Z,431.00
2023-03-31T07:41:59.855Z,424.00
2023-03-31T07:42:59.766Z,411.00
2023-03-31T07:43:59.734Z,447.00
2023-03-31T07:44:59.724Z,457.00
2023-03-31T07:45:59.674Z,459.00
2023-03-31T07:46:59.565Z,441.00
2023-03-31T07:47:59.459Z,432.00
2023-03-31T07:48:59.444Z,426.00
2023-03-31T07:49:59.390Z,433.00
2023-03-31T07:50:59.297Z,428.00
2023-03-31T07:51:59.319Z,409.00
2023-03-31T07:52:59.188Z,412.00
2023-03-31T07:53:59.112Z,427.00
2023-03-31T07:54:59.099Z,432.00
2023-03-31T07:55:58.968Z,460.00
2023-03-31T07:56:58.958Z,484.00
2023-03-31T07:57:58.860Z,511.00
2023-03-31T07:58:58.859Z,528.00
2023-03-31T07:59:58.730Z,547.00
2023-03-31T08:00:58.690Z,560.00
2023-03-31T08:01:58.623Z,564.00
2023-03-31T08:02:58.562Z,567.00
2023-03-31T08:03:58.524Z,546.00
2023-03-31T08:04:58.414Z,544.00
2023-03-31T08:05:58.340Z,534.00
2023-03-31T08:06:58.272Z,498.00
2023-03-31T08:07:58.283Z,476.00
2023-03-31T08:08:58.704Z,458.00
2023-03-31T08:09:59.923Z,409.00
2023-03-31T08:11:12.075Z,405.00
2023-03-31T08:11:59.549Z,394.00
2023-03-31T08:12:59.196Z,361.00
2023-03-31T08:14:02.075Z,335.00
2023-03-31T08:15:00.207Z,311.00
2023-03-31T08:18:16.091Z,304.00
2023-03-31T08:19:17.013Z,309.00
2023-03-31T08:20:16.950Z,297.00
2023-03-31T08:21:16.882Z,309.00
2023-03-31T08:22:16.844Z,310.00
2023-03-31T08:23:16.796Z,293.00
2023-03-31T08:24:16.699Z,270.00
2023-03-31T08:25:16.682Z,263.00
2023-03-31T08:26:17.994Z,254.00
2023-03-31T08:27:16.563Z,250.00
2023-03-31T08:28:16.471Z,248.00
2023-03-31T08:29:16.387Z,252.00
2023-03-31T08:30:16.356Z,264.00
2023-03-31T08:31:16.513Z,290.00
2023-03-31T08:32:16.215Z,305.00
2023-03-31T08:33:16.150Z,281.00
2023-03-31T08:34:16.066Z,275.00
2023-03-31T08:35:16.027Z,273.00
2023-03-31T08:36:15.989Z,284.00
2023-03-31T08:37:15.925Z,315.00
2023-03-31T08:38:15.884Z,338.00
2023-03-31T08:39:15.760Z,380.00
2023-03-31T08:40:15.745Z,432.00
2023-03-31T08:41:15.666Z,487.00
2023-03-31T08:42:16.291Z,544.00
2023-03-31T08:43:15.526Z,600.00
2023-03-31T08:44:15.435Z,673.00
2023-03-31T08:45:15.376Z,810.00
2023-03-31T08:46:15.350Z,957.00
2023-03-31T08:47:15.328Z,1051.00
2023-03-31T08:48:15.262Z,1137.00
2023-03-31T08:49:15.150Z,1239.00
2023-03-31T08:50:15.116Z,1282.00
2023-03-31T08:51:15.003Z,1337.00
2023-03-31T08:52:14.998Z,1303.00
2023-03-31T08:53:16.102Z,1244.00
2023-03-31T08:54:15.600Z,1247.00
2023-03-31T08:55:14.794Z,1175.00
2023-03-31T08:56:14.767Z,1221.00
2023-03-31T08:57:14.670Z,1258.00
2023-03-31T08:58:14.557Z,1251.00
2023-03-31T08:59:14.493Z,1229.00
2023-03-31T09:00:14.402Z,1232.00
2023-03-31T09:01:14.420Z,1197.00
2023-03-31T09:02:14.464Z,1101.00
2023-03-31T09:03:14.264Z,1046.00
2023-03-31T09:04:14.251Z,974.00
2023-03-31T09:05:14.196Z,973.00
2023-03-31T09:06:14.194Z,967.00
2023-03-31T09:07:14.023Z,990.00
2023-03-31T09:08:13.987Z,1027.00
2023-03-31T09:09:13.912Z,1013.00
2023-03-31T09:10:13.785Z,1063.00
2023-03-31T09:11:15.045Z,1040.00
2023-03-31T09:12:13.705Z,968.00
2023-03-31T09:13:13.616Z,853.00
2023-03-31T09:14:13.582Z,820.00
2023-03-31T09:15:15.882Z,797.00
2023-03-31T09:16:15.740Z,722.00
2023-03-31T09:17:13.440Z,683.00
2023-03-31T09:18:13.331Z,689.00
2023-03-31T09:19:13.265Z,704.00
2023-03-31T09:20:13.211Z,791.00
2023-03-31T09:21:13.115Z,916.00
2023-03-31T09:22:13.118Z,971.00
2023-03-31T09:23:12.975Z,988.00
2023-03-31T09:24:13.038Z,924.00
2023-03-31T09:25:12.834Z,919.00
2023-03-31T09:26:12.830Z,939.00
2023-03-31T09:27:12.747Z,956.00
2023-03-31T09:28:12.663Z,964.00
2023-03-31T09:29:13.856Z,978.00
2023-03-31T09:30:12.573Z,960.00
2023-03-31T09:31:12.512Z,970.00
2023-03-31T09:32:12.423Z,1017.00
2023-03-31T09:33:12.390Z,1065.00
2023-03-31T09:34:12.283Z,1094.00
2023-03-31T09:35:12.257Z,1094.00
2023-03-31T09:36:12.237Z,1086.00
2023-03-31T09:37:12.094Z,1107.00
2023-03-31T09:38:12.078Z,1117.00
2023-03-31T09:39:12.045Z,1109.00
2023-03-31T09:40:11.953Z,1067.00
2023-03-31T09:41:11.865Z,1030.00
2023-03-31T09:42:11.789Z,1032.00
2023-03-31T09:43:11.725Z,1103.00
2023-03-31T09:44:11.709Z,1179.00
2023-03-31T09:45:11.610Z,1360.00
2023-03-31T09:46:11.595Z,2890.00
2023-03-31T09:49:29.802Z,2878.00
2023-03-31T09:50:30.731Z,2683.00
2023-03-31T09:51:30.714Z,3035.00
2023-03-31T09:52:30.720Z,3013.00
2023-03-31T09:53:30.546Z,3454.00
2023-03-31T09:54:30.548Z,3696.00
2023-03-31T09:55:39.701Z,3737.00
2023-03-31T09:56:30.366Z,4287.00
2023-03-31T09:57:33.331Z,3562.00
2023-03-31T09:58:30.443Z,3546.00
2023-03-31T09:59:30.201Z,2930.00
2023-03-31T10:00:30.151Z,2603.00
2023-03-31T10:01:30.135Z,3969.00
2023-03-31T10:02:30.113Z,4641.00
2023-03-31T10:03:30.016Z,3003.00
2023-03-31T10:04:30.010Z,3413.00
2023-03-31T10:05:29.810Z,3071.00
2023-03-31T10:06:29.760Z,3119.00
2023-03-31T10:07:29.689Z,2738.00
2023-03-31T10:08:29.615Z,2109.00
2023-03-31T10:09:29.597Z,1963.00
2023-03-31T10:10:29.524Z,1954.00
2023-03-31T10:11:29.441Z,2653.00
2023-03-31T10:12:29.443Z,2500.00
2023-03-31T10:13:29.499Z,2893.00
2023-03-31T10:14:29.281Z,5600.00
2023-03-31T10:15:29.425Z,4496.00
2023-03-31T10:16:29.285Z,4185.00
2023-03-31T10:17:29.111Z,3480.00
2023-03-31T10:18:29.069Z,5048.00
2023-03-31T10:19:28.929Z,5423.00
2023-03-31T10:20:28.850Z,4157.00
2023-03-31T10:21:28.854Z,3613.00
2023-03-31T10:22:28.763Z,4378.00
2023-03-31T10:23:28.667Z,4678.00
2023-03-31T10:24:28.647Z,3986.00
2023-03-31T10:25:28.592Z,5443.00
2023-03-31T10:26:28.523Z,4566.00
2023-03-31T10:27:28.424Z,3848.00
2023-03-31T10:28:28.428Z,4049.00
2023-03-31T10:29:28.290Z,3460.00
2023-03-31T10:30:28.251Z,2623.00
2023-03-31T10:31:28.219Z,1924.00
2023-03-31T10:32:28.178Z,2015.00
2023-03-31T10:33:28.107Z,1693.00
2023-03-31T10:34:28.039Z,2491.00
2023-03-31T10:35:27.936Z,1834.00
2023-03-31T10:36:27.869Z,1024.00
2023-03-31T10:37:27.832Z,2414.00
2023-03-31T10:38:27.755Z,2700.00
2023-03-31T10:39:27.683Z,2859.00
2023-03-31T10:40:27.642Z,1954.00
2023-03-31T10:41:27.643Z,1951.00
2023-03-31T10:42:27.527Z,2642.00
2023-03-31T10:43:27.482Z,2701.00
2023-03-31T10:44:27.382Z,2484.00
2023-03-31T10:45:37.362Z,3632.00
2023-03-31T10:46:27.246Z,2285.00
2023-03-31T10:47:27.197Z,5114.00
2023-03-31T10:48:27.173Z,2852.00
2023-03-31T10:49:27.125Z,5339.00
2023-03-31T10:50:27.011Z,4252.00
2023-03-31T10:51:26.935Z,2921.00
2023-03-31T10:52:26.850Z,3327.00
2023-03-31T10:53:26.816Z,3603.00
2023-03-31T10:54:26.827Z,3167.00
2023-03-31T10:55:26.690Z,2681.00
2023-03-31T10:56:26.664Z,2023.00
2023-03-31T10:57:26.626Z,3078.00
2023-03-31T10:58:27.350Z,3493.00
2023-03-31T10:59:26.431Z,3334.00
2023-03-31T11:00:26.383Z,1309.00
2023-03-31T11:01:26.357Z,3623.00
2023-03-31T11:02:26.295Z,4743.00
2023-03-31T11:03:26.297Z,2888.00
2023-03-31T11:04:26.190Z,3375.00
2023-03-31T11:05:26.089Z,3568.00
2023-03-31T11:06:26.020Z,3283.00
2023-03-31T11:07:25.915Z,3258.00
2023-03-31T11:08:25.942Z,3344.00
2023-03-31T11:09:25.803Z,2505.00
2023-03-31T11:10:25.748Z,2482.00
2023-03-31T11:11:25.710Z,1153.00
2023-03-31T11:12:25.662Z,7912.00
2023-03-31T11:13:25.557Z,6295.00
2023-03-31T11:14:25.550Z,5209.00
2023-03-31T11:15:25.500Z,4090.00
2023-03-31T11:16:25.449Z,2449.00
2023-03-31T11:17:25.459Z,4839.00
2023-03-31T11:18:47.466Z,4264.00
2023-03-31T11:19:25.183Z,3185.00
2023-03-31T11:20:25.131Z,2343.00
2023-03-31T11:21:25.062Z,2299.00
2023-03-31T11:22:25.029Z,2119.00
2023-03-31T11:23:24.971Z,1925.00
2023-03-31T11:24:24.943Z,1809.00
2023-03-31T11:25:24.823Z,2015.00
2023-03-31T11:26:24.786Z,2241.00
2023-03-31T11:27:24.713Z,1992.00
2023-03-31T11:28:24.619Z,1867.00
2023-03-31T11:29:24.564Z,2230.00
2023-03-31T11:30:24.524Z,4171.00
2023-03-31T11:31:24.514Z,4521.00
2023-03-31T11:32:24.480Z,4477.00
2023-03-31T11:33:24.315Z,5409.00
2023-03-31T11:34:24.253Z,5193.00
2023-03-31T11:35:24.225Z,4208.00
2023-03-31T11:36:32.154Z,3892.00
2023-03-31T11:37:24.056Z,3988.00
2023-03-31T11:38:24.311Z,3455.00
2023-03-31T11:39:23.946Z,2992.00
2023-03-31T11:40:23.857Z,2625.00
2023-03-31T11:41:23.792Z,2207.00
2023-03-31T11:42:23.803Z,2330.00
2023-03-31T11:43:23.692Z,2006.00
2023-03-31T11:44:23.674Z,1985.00
2023-03-31T11:45:23.565Z,1789.00
2023-03-31T11:46:23.554Z,1516.00
2023-03-31T11:47:23.424Z,1490.00
2023-03-31T11:48:23.422Z,1571.00
2023-03-31T11:49:23.430Z,1518.00
2023-03-31T11:50:23.288Z,1997.00
2023-03-31T11:51:23.220Z,1994.00
2023-03-31T11:52:23.162Z,2040.00
2023-03-31T11:53:23.101Z,2062.00
2023-03-31T11:54:24.261Z,2392.00
2023-03-31T11:55:22.974Z,2515.00
2023-03-31T11:56:22.910Z,2329.00
2023-03-31T11:57:22.884Z,2591.00
2023-03-31T11:58:22.766Z,3251.00
2023-03-31T11:59:22.725Z,3681.00
2023-03-31T12:00:22.684Z,3873.00
2023-03-31T12:01:22.571Z,3822.00
2023-03-31T12:02:22.565Z,3670.00
2023-03-31T12:03:23.444Z,3244.00
2023-03-31T12:04:22.422Z,2736.00
2023-03-31T12:05:22.355Z,2400.00
2023-03-31T12:06:25.006Z,2813.00
2023-03-31T12:07:22.257Z,2755.00
2023-03-31T12:08:22.165Z,2660.00
2023-03-31T12:09:22.082Z,2126.00
2023-03-31T12:10:22.030Z,3202.00
2023-03-31T12:11:22.037Z,3376.00
2023-03-31T12:12:21.967Z,3374.00
2023-03-31T12:13:21.862Z,2283.00
2023-03-31T12:14:21.772Z,4486.00
2023-03-31T12:15:21.733Z,3212.00
2023-03-31T12:16:21.643Z,3601.00
2023-03-31T12:17:21.585Z,1470.00
2023-03-31T12:18:21.550Z,12825.00
2023-03-31T12:19:21.488Z,6249.00
2023-03-31T12:20:21.425Z,2638.00
2023-03-31T12:21:21.360Z,4981.00
2023-03-31T12:22:21.257Z,5138.00
2023-03-31T12:23:21.218Z,3968.00
2023-03-31T12:24:21.267Z,3441.00
2023-03-31T12:25:21.085Z,2168.00
2023-03-31T12:26:21.064Z,7246.00
2023-03-31T12:27:20.939Z,5851.00
2023-03-31T12:28:20.901Z,3720.00
2023-03-31T12:29:20.878Z,3971.00
2023-03-31T12:30:20.805Z,5190.00
2023-03-31T12:31:20.780Z,6516.00
2023-03-31T12:32:20.640Z,3445.00
2023-03-31T12:33:21.402Z,3185.00
2023-03-31T12:34:20.626Z,3221.00
2023-03-31T12:35:20.487Z,3770.00
2023-03-31T12:36:20.427Z,3233.00
2023-03-31T12:37:20.338Z,3064.00
2023-03-31T12:38:20.308Z,2626.00
2023-03-31T12:39:20.192Z,2316.00
2023-03-31T12:40:20.182Z,2513.00
2023-03-31T12:41:20.150Z,2109.00
2023-03-31T12:42:20.035Z,1723.00
2023-03-31T12:43:19.962Z,1410.00
2023-03-31T12:44:19.888Z,1001.00
2023-03-31T12:45:19.880Z,1804.00
2023-03-31T12:46:19.794Z,2522.00
2023-03-31T12:47:19.770Z,2282.00
2023-03-31T12:48:20.882Z,1959.00
2023-03-31T12:49:19.599Z,1448.00
2023-03-31T12:50:19.543Z,963.00
2023-03-31T12:51:19.462Z,659.00
2023-03-31T12:52:19.511Z,380.00
2023-03-31T12:53:19.351Z,196.00
2023-03-31T12:54:19.314Z,771.00
2023-03-31T12:55:19.222Z,1578.00
2023-03-31T12:56:19.191Z,1704.00
2023-03-31T12:57:19.128Z,1311.00
2023-03-31T12:58:19.042Z,768.00
2023-03-31T12:59:18.993Z,670.00
2023-03-31T13:00:18.970Z,1044.00
2023-03-31T13:01:18.862Z,2998.00
2023-03-31T13:02:18.862Z,2855.00
2023-03-31T13:03:18.771Z,2416.00
2023-03-31T13:04:18.697Z,2398.00